Terminal Aerodrome Forecast
Issued by NWS Shreveport, LA

Home | Current Version | Previous Version | Text Only | Print | Product List | Glossary On
Versions: 1 2 3 4 5 6 7 8 9 10 11 12 13 14 15
070
FTUS44 KSHV 200521
TAFSHV
TAF
KSHV 200521Z 2006/2106 12003KT P6SM BKN280
     FM201100 VRB03KT P6SM SCT025 SCT040 BKN250
      TEMPO 2012/2014 5SM BR BKN020 BKN040 OVC250
     FM201500 13009KT P6SM BKN050 BKN150 OVC250
     FM202000 14010KT P6SM BKN050 BKN120 OVC250
     FM210000 12006KT P6SM OVC050=

USA.gov is the U.S. government's official web portal to all federal, state and local government web resources and services.